Terminal Aerodrome Forecast
Issued by NWS

Home | Current Version | Previous Version | Text Only | Print | Product List | Glossary On
Versions: 1 2 3 4 5 6 7 8 9 10 11 12 13 14 15 16 17 18 19 20 21 22 23 24 25 26 27 28 29 30
815
FTAK31 PANC 092335
TAFADU
TAF
PADU 092335Z 1000/1024 36010G20KT P6SM -SHSN SCT025 OVC035
      TEMPO 1000/1003 BKN025 OVC035
     FM100300 33008G15KT P6SM BKN025 OVC040
     FM100900 33008KT P6SM -SHSN BKN025 OVC050
     FM101600 VRB05KT P6SM -SHSN BKN025 OVC050
      AMD LTD TO CLD VIS AND WX 1004/1016=

USA.gov is the U.S. government's official web portal to all federal, state and local government web resources and services.